sensor_id;sensor_type;location;lat;lon;timestamp;temperature;humidity
8643;DHT22;4359;49.358;11.256;2023-07-29T00:01:44;16.60;99.90
8643;DHT22;4359;49.358;11.256;2023-07-29T00:04:12;16.60;99.90
8643;DHT22;4359;49.358;11.256;2023-07-29T00:06:39;16.60;99.90
8643;DHT22;4359;49.358;11.256;2023-07-29T00:09:05;16.60;99.90
8643;DHT22;4359;49.358;11.256;2023-07-29T00:11:31;16.50;99.90
8643;DHT22;4359;49.358;11.256;2023-07-29T00:14:00;16.50;99.90
8643;DHT22;4359;49.358;11.256;2023-07-29T00:16:25;16.50;99.90
8643;DHT22;4359;49.358;11.256;2023-07-29T00:18:51;16.40;99.90
8643;DHT22;4359;49.358;11.256;2023-07-29T00:21:17;16.50;99.90
8643;DHT22;4359;49.358;11.256;2023-07-29T00:23:42;16.60;99.90
8643;DHT22;4359;49.358;11.256;2023-07-29T00:26:08;16.60;99.90
8643;DHT22;4359;49.358;11.256;2023-07-29T00:31:20;16.50;99.90
8643;DHT22;4359;49.358;11.256;2023-07-29T00:33:45;16.40;99.90
8643;DHT22;4359;49.358;11.256;2023-07-29T00:36:11;16.30;99.90
8643;DHT22;4359;49.358;11.256;2023-07-29T00:38:37;16.30;99.90
8643;DHT22;4359;49.358;11.256;2023-07-29T00:41:03;16.30;99.90
8643;DHT22;4359;49.358;11.256;2023-07-29T00:43:29;16.40;99.90
8643;DHT22;4359;49.358;11.256;2023-07-29T00:45:55;16.40;99.90
8643;DHT22;4359;49.358;11.256;2023-07-29T00:48:23;16.40;99.90
8643;DHT22;4359;49.358;11.256;2023-07-29T00:50:49;16.40;99.90
8643;DHT22;4359;49.358;11.256;2023-07-29T00:53:15;16.30;99.90
8643;DHT22;4359;49.358;11.256;2023-07-29T00:55:41;16.30;99.90
8643;DHT22;4359;49.358;11.256;2023-07-29T00:58:07;16.40;99.90
8643;DHT22;4359;49.358;11.256;2023-07-29T01:00:33;16.40;99.90
8643;DHT22;4359;49.358;11.256;2023-07-29T01:02:59;16.40;99.90
8643;DHT22;4359;49.358;11.256;2023-07-29T01:05:30;16.40;99.90
8643;DHT22;4359;49.358;11.256;2023-07-29T01:08:31;16.30;99.90
8643;DHT22;4359;49.358;11.256;2023-07-29T01:11:08;16.20;99.90
8643;DHT22;4359;49.358;11.256;2023-07-29T01:14:07;16.10;99.90
8643;DHT22;4359;49.358;11.256;2023-07-29T01:16:46;16.10;99.90
8643;DHT22;4359;49.358;11.256;2023-07-29T01:22:07;15.90;99.90
8643;DHT22;4359;49.358;11.256;2023-07-29T01:24:33;15.90;99.90
8643;DHT22;4359;49.358;11.256;2023-07-29T01:26:59;15.80;99.90
8643;DHT22;4359;49.358;11.256;2023-07-29T01:29:27;15.80;99.90
8643;DHT22;4359;49.358;11.256;2023-07-29T01:31:56;15.80;99.90
8643;DHT22;4359;49.358;11.256;2023-07-29T01:34:52;15.70;99.90
8643;DHT22;4359;49.358;11.256;2023-07-29T01:37:19;15.70;99.90
8643;DHT22;4359;49.358;11.256;2023-07-29T01:39:47;15.60;99.90
8643;DHT22;4359;49.358;11.256;2023-07-29T01:42:15;15.50;99.90
8643;DHT22;4359;49.358;11.256;2023-07-29T01:44:40;15.50;99.90
8643;DHT22;4359;49.358;11.256;2023-07-29T01:47:08;15.50;99.90
8643;DHT22;4359;49.358;11.256;2023-07-29T01:49:33;15.50;99.90
8643;DHT22;4359;49.358;11.256;2023-07-29T01:51:59;15.50;99.90
8643;DHT22;4359;49.358;11.256;2023-07-29T01:54:25;15.40;99.90
8643;DHT22;4359;49.358;11.256;2023-07-29T01:56:50;15.40;99.90
8643;DHT22;4359;49.358;11.256;2023-07-29T01:59:16;15.30;99.90
8643;DHT22;4359;49.358;11.256;2023-07-29T02:01:42;15.30;99.90
8643;DHT22;4359;49.358;11.256;2023-07-29T02:04:08;15.30;99.90
8643;DHT22;4359;49.358;11.256;2023-07-29T02:06:34;15.20;99.90
8643;DHT22;4359;49.358;11.256;2023-07-29T02:09:00;15.20;99.90
8643;DHT22;4359;49.358;11.256;2023-07-29T02:11:25;15.20;99.90
8643;DHT22;4359;49.358;11.256;2023-07-29T02:13:54;15.20;99.90
8643;DHT22;4359;49.358;11.256;2023-07-29T02:16:20;15.40;99.90
8643;DHT22;4359;49.358;11.256;2023-07-29T02:18:46;15.40;99.90
8643;DHT22;4359;49.358;11.256;2023-07-29T02:21:12;15.40;99.90
8643;DHT22;4359;49.358;11.256;2023-07-29T02:23:37;15.30;99.90
8643;DHT22;4359;49.358;11.256;2023-07-29T02:26:03;15.30;99.90
8643;DHT22;4359;49.358;11.256;2023-07-29T02:28:28;15.20;99.90
8643;DHT22;4359;49.358;11.256;2023-07-29T02:31:17;15.10;99.90
8643;DHT22;4359;49.358;11.256;2023-07-29T02:33:43;15.00;99.90
8643;DHT22;4359;49.358;11.256;2023-07-29T02:36:09;14.90;99.90
8643;DHT22;4359;49.358;11.256;2023-07-29T02:38:34;14.90;99.90
8643;DHT22;4359;49.358;11.256;2023-07-29T02:41:00;14.90;99.90
8643;DHT22;4359;49.358;11.256;2023-07-29T02:43:26;14.90;99.90
8643;DHT22;4359;49.358;11.256;2023-07-29T02:45:51;14.90;99.90
8643;DHT22;4359;49.358;11.256;2023-07-29T02:48:17;15.00;99.90
8643;DHT22;4359;49.358;11.256;2023-07-29T02:50:43;15.00;99.90
8643;DHT22;4359;49.358;11.256;2023-07-29T02:53:08;15.00;99.90
8643;DHT22;4359;49.358;11.256;2023-07-29T02:55:34;14.90;99.90
8643;DHT22;4359;49.358;11.256;2023-07-29T02:58:00;14.80;99.90
8643;DHT22;4359;49.358;11.256;2023-07-29T03:00:25;14.70;99.90
8643;DHT22;4359;49.358;11.256;2023-07-29T03:02:51;14.70;99.90
8643;DHT22;4359;49.358;11.256;2023-07-29T03:05:17;14.70;99.90
8643;DHT22;4359;49.358;11.256;2023-07-29T03:07:42;14.80;99.90
8643;DHT22;4359;49.358;11.256;2023-07-29T03:10:08;14.80;99.90
8643;DHT22;4359;49.358;11.256;2023-07-29T03:12:36;14.70;99.90
8643;DHT22;4359;49.358;11.256;2023-07-29T03:15:02;14.70;99.90
8643;DHT22;4359;49.358;11.256;2023-07-29T03:17:27;14.70;99.90
8643;DHT22;4359;49.358;11.256;2023-07-29T03:19:53;14.70;99.90
8643;DHT22;4359;49.358;11.256;2023-07-29T03:22:21;14.70;99.90
8643;DHT22;4359;49.358;11.256;2023-07-29T03:24:47;14.80;99.90
8643;DHT22;4359;49.358;11.256;2023-07-29T03:27:12;14.70;99.90
8643;DHT22;4359;49.358;11.256;2023-07-29T03:29:40;14.60;99.90
8643;DHT22;4359;49.358;11.256;2023-07-29T03:32:06;14.60;99.90
8643;DHT22;4359;49.358;11.256;2023-07-29T03:34:32;14.50;99.90
8643;DHT22;4359;49.358;11.256;2023-07-29T03:36:58;14.40;99.90
8643;DHT22;4359;49.358;11.256;2023-07-29T03:39:24;14.30;99.90
8643;DHT22;4359;49.358;11.256;2023-07-29T03:41:50;14.20;99.90
8643;DHT22;4359;49.358;11.256;2023-07-29T03:44:15;14.10;99.90
8643;DHT22;4359;49.358;11.256;2023-07-29T03:46:41;14.10;99.90
8643;DHT22;4359;49.358;11.256;2023-07-29T03:49:07;14.10;99.90
8643;DHT22;4359;49.358;11.256;2023-07-29T03:51:32;14.10;99.90
8643;DHT22;4359;49.358;11.256;2023-07-29T03:53:58;14.10;99.90
8643;DHT22;4359;49.358;11.256;2023-07-29T03:56:23;14.20;99.90
8643;DHT22;4359;49.358;11.256;2023-07-29T03:58:49;14.20;99.90
8643;DHT22;4359;49.358;11.256;2023-07-29T04:01:15;14.30;99.90
8643;DHT22;4359;49.358;11.256;2023-07-29T04:03:40;14.30;99.90
8643;DHT22;4359;49.358;11.256;2023-07-29T04:06:06;14.40;99.90
8643;DHT22;4359;49.358;11.256;2023-07-29T04:08:32;14.40;99.90
8643;DHT22;4359;49.358;11.256;2023-07-29T04:10:58;14.50;99.90
8643;DHT22;4359;49.358;11.256;2023-07-29T04:13:24;14.60;99.90
8643;DHT22;4359;49.358;11.256;2023-07-29T04:15:49;14.80;99.90
8643;DHT22;4359;49.358;11.256;2023-07-29T04:18:15;14.90;99.90
8643;DHT22;4359;49.358;11.256;2023-07-29T04:20:40;14.90;99.90
8643;DHT22;4359;49.358;11.256;2023-07-29T04:23:06;14.90;99.90
8643;DHT22;4359;49.358;11.256;2023-07-29T04:25:32;14.90;99.90
8643;DHT22;4359;49.358;11.256;2023-07-29T04:27:57;15.00;99.90
8643;DHT22;4359;49.358;11.256;2023-07-29T04:30:23;15.00;99.90
8643;DHT22;4359;49.358;11.256;2023-07-29T04:32:49;15.10;99.90
8643;DHT22;4359;49.358;11.256;2023-07-29T04:35:15;15.20;99.90
8643;DHT22;4359;49.358;11.256;2023-07-29T04:37:41;15.10;99.90
8643;DHT22;4359;49.358;11.256;2023-07-29T04:40:07;15.20;99.90
8643;DHT22;4359;49.358;11.256;2023-07-29T04:42:33;15.30;99.90
8643;DHT22;4359;49.358;11.256;2023-07-29T04:44:58;15.40;99.90
8643;DHT22;4359;49.358;11.256;2023-07-29T04:47:24;15.50;99.90
8643;DHT22;4359;49.358;11.256;2023-07-29T04:49:49;15.70;99.90
8643;DHT22;4359;49.358;11.256;2023-07-29T04:52:15;16.00;99.90
8643;DHT22;4359;49.358;11.256;2023-07-29T04:54:41;16.10;99.90
8643;DHT22;4359;49.358;11.256;2023-07-29T04:57:07;16.20;99.90
8643;DHT22;4359;49.358;11.256;2023-07-29T04:59:32;16.30;99.90
8643;DHT22;4359;49.358;11.256;2023-07-29T05:01:58;16.50;99.90
8643;DHT22;4359;49.358;11.256;2023-07-29T05:04:23;16.70;99.90
8643;DHT22;4359;49.358;11.256;2023-07-29T05:06:49;16.90;99.90
8643;DHT22;4359;49.358;11.256;2023-07-29T05:09:17;17.10;99.90
8643;DHT22;4359;49.358;11.256;2023-07-29T05:11:43;17.20;99.90
8643;DHT22;4359;49.358;11.256;2023-07-29T05:14:17;17.20;99.90
8643;DHT22;4359;49.358;11.256;2023-07-29T05:16:43;17.30;99.90
8643;DHT22;4359;49.358;11.256;2023-07-29T05:19:09;17.30;99.90
8643;DHT22;4359;49.358;11.256;2023-07-29T05:21:37;17.40;99.90
8643;DHT22;4359;49.358;11.256;2023-07-29T05:24:03;17.50;99.90
8643;DHT22;4359;49.358;11.256;2023-07-29T05:26:29;17.60;99.90
8643;DHT22;4359;49.358;11.256;2023-07-29T05:28:54;17.60;99.90
8643;DHT22;4359;49.358;11.256;2023-07-29T05:31:21;17.70;99.90
8643;DHT22;4359;49.358;11.256;2023-07-29T05:33:47;17.80;99.90
8643;DHT22;4359;49.358;11.256;2023-07-29T05:36:12;17.80;99.90
8643;DHT22;4359;49.358;11.256;2023-07-29T05:38:38;17.90;99.90
8643;DHT22;4359;49.358;11.256;2023-07-29T05:41:04;17.90;99.90
8643;DHT22;4359;49.358;11.256;2023-07-29T05:43:29;18.00;99.90
8643;DHT22;4359;49.358;11.256;2023-07-29T05:45:55;18.10;99.90
8643;DHT22;4359;49.358;11.256;2023-07-29T05:48:21;18.20;99.90
8643;DHT22;4359;49.358;11.256;2023-07-29T05:50:47;18.30;99.90
8643;DHT22;4359;49.358;11.256;2023-07-29T05:53:13;18.30;99.90
8643;DHT22;4359;49.358;11.256;2023-07-29T05:55:39;18.40;99.90
8643;DHT22;4359;49.358;11.256;2023-07-29T05:58:05;18.50;99.90
8643;DHT22;4359;49.358;11.256;2023-07-29T06:00:31;18.60;99.90
8643;DHT22;4359;49.358;11.256;2023-07-29T06:02:56;18.70;99.90
8643;DHT22;4359;49.358;11.256;2023-07-29T06:05:22;18.80;99.90
8643;DHT22;4359;49.358;11.256;2023-07-29T06:07:48;18.80;99.90
8643;DHT22;4359;49.358;11.256;2023-07-29T06:10:15;18.80;99.90
8643;DHT22;4359;49.358;11.256;2023-07-29T06:12:44;18.90;99.90
8643;DHT22;4359;49.358;11.256;2023-07-29T06:15:10;18.90;99.90
8643;DHT22;4359;49.358;11.256;2023-07-29T06:17:37;18.90;99.90
8643;DHT22;4359;49.358;11.256;2023-07-29T06:20:04;18.80;99.90
8643;DHT22;4359;49.358;11.256;2023-07-29T06:22:29;18.70;99.90
8643;DHT22;4359;49.358;11.256;2023-07-29T06:24:55;18.60;99.90
8643;DHT22;4359;49.358;11.256;2023-07-29T06:27:20;18.50;99.90
8643;DHT22;4359;49.358;11.256;2023-07-29T06:29:46;18.50;99.90
8643;DHT22;4359;49.358;11.256;2023-07-29T06:32:12;18.50;99.90
8643;DHT22;4359;49.358;11.256;2023-07-29T06:34:37;18.50;99.90
8643;DHT22;4359;49.358;11.256;2023-07-29T06:37:03;18.50;99.90
8643;DHT22;4359;49.358;11.256;2023-07-29T06:39:28;18.50;99.90
8643;DHT22;4359;49.358;11.256;2023-07-29T06:41:54;18.60;99.90
8643;DHT22;4359;49.358;11.256;2023-07-29T06:44:20;18.60;99.90
8643;DHT22;4359;49.358;11.256;2023-07-29T06:46:46;18.60;99.90
8643;DHT22;4359;49.358;11.256;2023-07-29T06:49:12;18.60;99.90
8643;DHT22;4359;49.358;11.256;2023-07-29T06:51:37;18.60;99.90
8643;DHT22;4359;49.358;11.256;2023-07-29T06:54:03;18.50;99.90
8643;DHT22;4359;49.358;11.256;2023-07-29T06:56:29;18.40;99.90
8643;DHT22;4359;49.358;11.256;2023-07-29T06:58:54;18.30;99.90
8643;DHT22;4359;49.358;11.256;2023-07-29T07:01:20;18.20;99.90
8643;DHT22;4359;49.358;11.256;2023-07-29T07:03:46;18.20;99.90
8643;DHT22;4359;49.358;11.256;2023-07-29T07:06:12;18.20;99.90
8643;DHT22;4359;49.358;11.256;2023-07-29T07:08:37;18.20;99.90
8643;DHT22;4359;49.358;11.256;2023-07-29T07:11:03;18.20;99.90
8643;DHT22;4359;49.358;11.256;2023-07-29T07:13:28;18.30;99.90
8643;DHT22;4359;49.358;11.256;2023-07-29T07:15:55;18.40;99.90
8643;DHT22;4359;49.358;11.256;2023-07-29T07:18:20;18.40;99.90
8643;DHT22;4359;49.358;11.256;2023-07-29T07:20:49;18.50;99.90
8643;DHT22;4359;49.358;11.256;2023-07-29T07:23:16;18.70;99.90
8643;DHT22;4359;49.358;11.256;2023-07-29T07:25:41;18.80;99.90
8643;DHT22;4359;49.358;11.256;2023-07-29T07:28:10;18.80;99.90
8643;DHT22;4359;49.358;11.256;2023-07-29T07:30:40;18.90;99.90
8643;DHT22;4359;49.358;11.256;2023-07-29T07:33:09;18.90;99.90
8643;DHT22;4359;49.358;11.256;2023-07-29T07:35:34;19.10;99.90
8643;DHT22;4359;49.358;11.256;2023-07-29T07:38:00;19.20;99.90
8643;DHT22;4359;49.358;11.256;2023-07-29T07:40:30;19.40;99.90
8643;DHT22;4359;49.358;11.256;2023-07-29T07:42:56;19.50;99.90
8643;DHT22;4359;49.358;11.256;2023-07-29T07:45:21;19.50;99.90
8643;DHT22;4359;49.358;11.256;2023-07-29T07:47:47;19.70;99.90
8643;DHT22;4359;49.358;11.256;2023-07-29T07:50:13;19.90;99.90
8643;DHT22;4359;49.358;11.256;2023-07-29T07:52:39;20.10;99.90
8643;DHT22;4359;49.358;11.256;2023-07-29T07:55:05;20.30;99.90
8643;DHT22;4359;49.358;11.256;2023-07-29T07:57:31;20.60;99.90
8643;DHT22;4359;49.358;11.256;2023-07-29T07:59:57;20.80;99.90
8643;DHT22;4359;49.358;11.256;2023-07-29T08:02:22;20.80;99.90
8643;DHT22;4359;49.358;11.256;2023-07-29T08:04:48;20.70;99.90
8643;DHT22;4359;49.358;11.256;2023-07-29T08:07:14;20.60;99.90
8643;DHT22;4359;49.358;11.256;2023-07-29T08:09:39;20.50;99.90
8643;DHT22;4359;49.358;11.256;2023-07-29T08:12:05;20.20;99.90
8643;DHT22;4359;49.358;11.256;2023-07-29T08:14:31;20.10;99.90
8643;DHT22;4359;49.358;11.256;2023-07-29T08:16:57;20.00;99.90
8643;DHT22;4359;49.358;11.256;2023-07-29T08:19:23;19.90;99.90
8643;DHT22;4359;49.358;11.256;2023-07-29T08:21:48;19.80;99.90
8643;DHT22;4359;49.358;11.256;2023-07-29T08:24:14;19.80;99.90
8643;DHT22;4359;49.358;11.256;2023-07-29T08:26:40;19.90;99.90
8643;DHT22;4359;49.358;11.256;2023-07-29T08:29:05;19.90;99.90
8643;DHT22;4359;49.358;11.256;2023-07-29T08:31:31;19.90;99.90
8643;DHT22;4359;49.358;11.256;2023-07-29T08:33:59;19.90;99.90
8643;DHT22;4359;49.358;11.256;2023-07-29T08:36:25;19.80;99.90
8643;DHT22;4359;49.358;11.256;2023-07-29T08:38:51;19.70;99.90
8643;DHT22;4359;49.358;11.256;2023-07-29T08:41:21;19.70;99.90
8643;DHT22;4359;49.358;11.256;2023-07-29T08:44:06;19.40;99.90
8643;DHT22;4359;49.358;11.256;2023-07-29T08:46:33;19.10;99.90
8643;DHT22;4359;49.358;11.256;2023-07-29T08:48:59;18.90;99.90
8643;DHT22;4359;49.358;11.256;2023-07-29T08:51:27;18.80;99.90
8643;DHT22;4359;49.358;11.256;2023-07-29T08:53:53;18.70;99.90
8643;DHT22;4359;49.358;11.256;2023-07-29T08:56:19;18.70;99.90
8643;DHT22;4359;49.358;11.256;2023-07-29T08:58:45;18.70;99.90
8643;DHT22;4359;49.358;11.256;2023-07-29T09:01:12;18.80;99.90
8643;DHT22;4359;49.358;11.256;2023-07-29T09:03:37;18.90;99.90
8643;DHT22;4359;49.358;11.256;2023-07-29T09:06:03;18.90;99.90
8643;DHT22;4359;49.358;11.256;2023-07-29T09:08:29;18.90;99.90
8643;DHT22;4359;49.358;11.256;2023-07-29T09:10:55;18.90;99.90
8643;DHT22;4359;49.358;11.256;2023-07-29T09:13:21;18.80;99.90
8643;DHT22;4359;49.358;11.256;2023-07-29T09:15:47;18.70;99.90
8643;DHT22;4359;49.358;11.256;2023-07-29T09:18:18;18.60;99.90
8643;DHT22;4359;49.358;11.256;2023-07-29T09:20:47;18.60;99.90
8643;DHT22;4359;49.358;11.256;2023-07-29T09:23:13;18.60;99.90
8643;DHT22;4359;49.358;11.256;2023-07-29T09:25:40;18.60;99.90
8643;DHT22;4359;49.358;11.256;2023-07-29T09:28:15;18.60;99.90
8643;DHT22;4359;49.358;11.256;2023-07-29T09:30:43;18.70;99.90
8643;DHT22;4359;49.358;11.256;2023-07-29T09:33:09;18.60;99.90
8643;DHT22;4359;49.358;11.256;2023-07-29T09:35:36;18.70;99.90
8643;DHT22;4359;49.358;11.256;2023-07-29T09:38:03;18.60;99.90
8643;DHT22;4359;49.358;11.256;2023-07-29T09:40:40;18.60;99.90
8643;DHT22;4359;49.358;11.256;2023-07-29T09:43:08;18.60;99.90
8643;DHT22;4359;49.358;11.256;2023-07-29T09:45:35;18.60;99.90
8643;DHT22;4359;49.358;11.256;2023-07-29T09:48:03;18.70;99.90
8643;DHT22;4359;49.358;11.256;2023-07-29T09:50:30;18.70;99.90
8643;DHT22;4359;49.358;11.256;2023-07-29T09:52:57;18.70;99.90
8643;DHT22;4359;49.358;11.256;2023-07-29T09:55:26;18.70;99.90
8643;DHT22;4359;49.358;11.256;2023-07-29T09:58:01;18.80;99.90
8643;DHT22;4359;49.358;11.256;2023-07-29T10:00:28;18.90;99.90
8643;DHT22;4359;49.358;11.256;2023-07-29T10:02:55;19.10;99.90
8643;DHT22;4359;49.358;11.256;2023-07-29T10:05:22;19.40;99.90
8643;DHT22;4359;49.358;11.256;2023-07-29T10:07:49;19.70;99.90
8643;DHT22;4359;49.358;11.256;2023-07-29T10:10:15;20.20;99.90
8643;DHT22;4359;49.358;11.256;2023-07-29T10:12:42;20.60;99.90
8643;DHT22;4359;49.358;11.256;2023-07-29T10:15:08;21.00;99.90
8643;DHT22;4359;49.358;11.256;2023-07-29T10:17:35;21.70;99.90
8643;DHT22;4359;49.358;11.256;2023-07-29T10:20:03;22.20;99.90
8643;DHT22;4359;49.358;11.256;2023-07-29T10:22:35;22.30;99.90
8643;DHT22;4359;49.358;11.256;2023-07-29T10:25:04;22.20;99.90
8643;DHT22;4359;49.358;11.256;2023-07-29T10:28:08;22.00;99.90
8643;DHT22;4359;49.358;11.256;2023-07-29T10:30:28;21.90;99.90
8643;DHT22;4359;49.358;11.256;2023-07-29T10:32:57;21.70;99.90
8643;DHT22;4359;49.358;11.256;2023-07-29T10:35:23;21.50;99.90
8643;DHT22;4359;49.358;11.256;2023-07-29T10:37:51;21.60;99.90
8643;DHT22;4359;49.358;11.256;2023-07-29T10:40:19;21.80;99.90
8643;DHT22;4359;49.358;11.256;2023-07-29T10:43:03;21.80;99.90
8643;DHT22;4359;49.358;11.256;2023-07-29T10:45:38;21.90;99.90
8643;DHT22;4359;49.358;11.256;2023-07-29T10:51:24;22.50;99.90
8643;DHT22;4359;49.358;11.256;2023-07-29T10:54:01;23.40;99.90
8643;DHT22;4359;49.358;11.256;2023-07-29T10:56:32;24.10;99.90
8643;DHT22;4359;49.358;11.256;2023-07-29T11:01:43;25.00;99.90
8643;DHT22;4359;49.358;11.256;2023-07-29T11:09:52;23.90;99.90
8643;DHT22;4359;49.358;11.256;2023-07-29T11:15:14;24.10;99.90
8643;DHT22;4359;49.358;11.256;2023-07-29T11:17:42;24.20;99.90
8643;DHT22;4359;49.358;11.256;2023-07-29T11:20:08;24.10;99.90
8643;DHT22;4359;49.358;11.256;2023-07-29T11:22:35;24.20;99.90
8643;DHT22;4359;49.358;11.256;2023-07-29T11:25:01;25.00;99.90
8643;DHT22;4359;49.358;11.256;2023-07-29T11:27:26;25.30;99.90
8643;DHT22;4359;49.358;11.256;2023-07-29T11:29:59;25.30;99.90
8643;DHT22;4359;49.358;11.256;2023-07-29T11:32:26;25.50;99.90
8643;DHT22;4359;49.358;11.256;2023-07-29T11:34:52;25.60;99.90
8643;DHT22;4359;49.358;11.256;2023-07-29T11:37:17;25.40;99.90
8643;DHT22;4359;49.358;11.256;2023-07-29T11:39:46;24.70;99.90
8643;DHT22;4359;49.358;11.256;2023-07-29T11:42:13;23.90;99.90
8643;DHT22;4359;49.358;11.256;2023-07-29T11:44:39;23.10;99.90
8643;DHT22;4359;49.358;11.256;2023-07-29T11:47:09;23.10;99.90
8643;DHT22;4359;49.358;11.256;2023-07-29T11:49:35;23.10;99.90
8643;DHT22;4359;49.358;11.256;2023-07-29T11:52:03;23.10;99.90
8643;DHT22;4359;49.358;11.256;2023-07-29T11:54:29;23.00;99.90
8643;DHT22;4359;49.358;11.256;2023-07-29T11:56:55;23.10;99.90
8643;DHT22;4359;49.358;11.256;2023-07-29T11:59:21;23.30;99.90
8643;DHT22;4359;49.358;11.256;2023-07-29T12:01:47;23.30;99.90
8643;DHT22;4359;49.358;11.256;2023-07-29T12:04:13;23.10;99.90
8643;DHT22;4359;49.358;11.256;2023-07-29T12:06:39;23.00;99.90
8643;DHT22;4359;49.358;11.256;2023-07-29T12:09:06;23.00;99.90
8643;DHT22;4359;49.358;11.256;2023-07-29T12:11:33;23.40;99.90
8643;DHT22;4359;49.358;11.256;2023-07-29T12:14:00;23.90;99.90
8643;DHT22;4359;49.358;11.256;2023-07-29T12:16:25;24.70;99.90
8643;DHT22;4359;49.358;11.256;2023-07-29T12:18:51;25.10;99.90
8643;DHT22;4359;49.358;11.256;2023-07-29T12:21:18;24.90;99.90
8643;DHT22;4359;49.358;11.256;2023-07-29T12:23:44;24.80;99.90
8643;DHT22;4359;49.358;11.256;2023-07-29T12:26:10;24.90;99.90
8643;DHT22;4359;49.358;11.256;2023-07-29T12:28:35;24.80;99.90
8643;DHT22;4359;49.358;11.256;2023-07-29T12:31:01;25.20;99.90
8643;DHT22;4359;49.358;11.256;2023-07-29T12:33:35;25.30;99.90
8643;DHT22;4359;49.358;11.256;2023-07-29T12:36:02;25.20;99.90
8643;DHT22;4359;49.358;11.256;2023-07-29T12:38:28;25.50;99.90
8643;DHT22;4359;49.358;11.256;2023-07-29T12:40:55;26.20;99.90
8643;DHT22;4359;49.358;11.256;2023-07-29T12:43:21;26.20;99.90
8643;DHT22;4359;49.358;11.256;2023-07-29T12:45:49;26.40;99.90
8643;DHT22;4359;49.358;11.256;2023-07-29T12:48:15;26.60;99.90
8643;DHT22;4359;49.358;11.256;2023-07-29T12:50:40;26.60;99.90
8643;DHT22;4359;49.358;11.256;2023-07-29T12:53:07;26.80;99.90
8643;DHT22;4359;49.358;11.256;2023-07-29T12:55:34;26.80;99.90
8643;DHT22;4359;49.358;11.256;2023-07-29T12:57:59;26.50;99.90
8643;DHT22;4359;49.358;11.256;2023-07-29T13:00:26;25.80;99.90
8643;DHT22;4359;49.358;11.256;2023-07-29T13:02:51;26.00;99.90
8643;DHT22;4359;49.358;11.256;2023-07-29T13:05:17;26.40;99.90
8643;DHT22;4359;49.358;11.256;2023-07-29T13:07:43;26.90;99.90
8643;DHT22;4359;49.358;11.256;2023-07-29T13:10:10;27.30;99.90
8643;DHT22;4359;49.358;11.256;2023-07-29T13:12:35;27.60;99.90
8643;DHT22;4359;49.358;11.256;2023-07-29T13:15:01;28.00;99.90
8643;DHT22;4359;49.358;11.256;2023-07-29T13:17:27;27.80;99.90
8643;DHT22;4359;49.358;11.256;2023-07-29T13:19:53;27.40;99.90
8643;DHT22;4359;49.358;11.256;2023-07-29T13:22:19;27.20;99.90
8643;DHT22;4359;49.358;11.256;2023-07-29T13:24:45;27.30;99.90
8643;DHT22;4359;49.358;11.256;2023-07-29T13:27:11;27.00;99.90
8643;DHT22;4359;49.358;11.256;2023-07-29T13:29:36;26.50;99.90
8643;DHT22;4359;49.358;11.256;2023-07-29T13:32:02;27.40;99.90
8643;DHT22;4359;49.358;11.256;2023-07-29T13:34:28;27.40;99.90
8643;DHT22;4359;49.358;11.256;2023-07-29T13:36:54;26.60;99.90
8643;DHT22;4359;49.358;11.256;2023-07-29T13:39:19;26.10;99.90
8643;DHT22;4359;49.358;11.256;2023-07-29T13:41:45;26.00;99.90
8643;DHT22;4359;49.358;11.256;2023-07-29T13:44:10;26.20;99.90
8643;DHT22;4359;49.358;11.256;2023-07-29T13:46:37;26.10;99.90
8643;DHT22;4359;49.358;11.256;2023-07-29T13:49:02;25.90;99.90
8643;DHT22;4359;49.358;11.256;2023-07-29T13:51:28;25.70;99.90
8643;DHT22;4359;49.358;11.256;2023-07-29T13:53:54;26.00;99.90
8643;DHT22;4359;49.358;11.256;2023-07-29T13:56:21;26.30;99.90
8643;DHT22;4359;49.358;11.256;2023-07-29T13:58:47;26.10;99.90
8643;DHT22;4359;49.358;11.256;2023-07-29T14:01:13;26.30;99.90
8643;DHT22;4359;49.358;11.256;2023-07-29T14:03:38;26.60;99.90
8643;DHT22;4359;49.358;11.256;2023-07-29T14:06:04;26.80;99.90
8643;DHT22;4359;49.358;11.256;2023-07-29T14:08:29;26.70;99.90
8643;DHT22;4359;49.358;11.256;2023-07-29T14:10:55;26.60;99.90
8643;DHT22;4359;49.358;11.256;2023-07-29T14:13:21;26.60;99.90
8643;DHT22;4359;49.358;11.256;2023-07-29T14:15:47;26.60;99.90
8643;DHT22;4359;49.358;11.256;2023-07-29T14:18:12;27.00;99.90
8643;DHT22;4359;49.358;11.256;2023-07-29T14:20:38;27.10;99.90
8643;DHT22;4359;49.358;11.256;2023-07-29T14:23:04;27.00;99.90
8643;DHT22;4359;49.358;11.256;2023-07-29T14:25:30;26.80;99.90
8643;DHT22;4359;49.358;11.256;2023-07-29T14:27:55;26.60;99.90
8643;DHT22;4359;49.358;11.256;2023-07-29T14:30:21;26.50;99.90
8643;DHT22;4359;49.358;11.256;2023-07-29T14:32:47;26.60;99.90
8643;DHT22;4359;49.358;11.256;2023-07-29T14:35:12;26.60;99.90
8643;DHT22;4359;49.358;11.256;2023-07-29T14:37:38;26.90;99.90
8643;DHT22;4359;49.358;11.256;2023-07-29T14:40:04;27.10;99.90
8643;DHT22;4359;49.358;11.256;2023-07-29T14:42:30;26.70;99.90
8643;DHT22;4359;49.358;11.256;2023-07-29T14:44:56;26.20;99.90
8643;DHT22;4359;49.358;11.256;2023-07-29T14:47:22;26.00;99.90
8643;DHT22;4359;49.358;11.256;2023-07-29T14:49:47;26.00;99.90
8643;DHT22;4359;49.358;11.256;2023-07-29T14:52:13;26.00;99.90
8643;DHT22;4359;49.358;11.256;2023-07-29T14:54:38;25.70;99.90
8643;DHT22;4359;49.358;11.256;2023-07-29T14:57:06;25.50;99.90
8643;DHT22;4359;49.358;11.256;2023-07-29T14:59:32;25.30;99.90
8643;DHT22;4359;49.358;11.256;2023-07-29T15:01:58;25.70;99.90
8643;DHT22;4359;49.358;11.256;2023-07-29T15:04:23;26.60;99.90
8643;DHT22;4359;49.358;11.256;2023-07-29T15:06:49;27.70;99.90
8643;DHT22;4359;49.358;11.256;2023-07-29T15:09:15;29.00;99.90
8643;DHT22;4359;49.358;11.256;2023-07-29T15:11:40;30.20;99.90
8643;DHT22;4359;49.358;11.256;2023-07-29T15:14:06;30.70;99.90
8643;DHT22;4359;49.358;11.256;2023-07-29T15:16:32;30.30;99.90
8643;DHT22;4359;49.358;11.256;2023-07-29T15:19:02;30.70;99.90
8643;DHT22;4359;49.358;11.256;2023-07-29T15:21:27;30.70;99.90
8643;DHT22;4359;49.358;11.256;2023-07-29T15:23:53;30.40;99.90
8643;DHT22;4359;49.358;11.256;2023-07-29T15:26:19;30.40;99.90
8643;DHT22;4359;49.358;11.256;2023-07-29T15:28:44;30.20;99.90
8643;DHT22;4359;49.358;11.256;2023-07-29T15:31:12;29.90;99.90
8643;DHT22;4359;49.358;11.256;2023-07-29T15:33:38;30.00;99.90
8643;DHT22;4359;49.358;11.256;2023-07-29T15:36:04;30.00;99.90
8643;DHT22;4359;49.358;11.256;2023-07-29T15:38:29;29.80;99.90
8643;DHT22;4359;49.358;11.256;2023-07-29T15:40:55;29.20;99.90
8643;DHT22;4359;49.358;11.256;2023-07-29T15:43:21;28.20;99.90
8643;DHT22;4359;49.358;11.256;2023-07-29T15:45:47;27.20;99.90
8643;DHT22;4359;49.358;11.256;2023-07-29T15:48:13;26.40;99.90
8643;DHT22;4359;49.358;11.256;2023-07-29T15:50:38;26.10;99.90
8643;DHT22;4359;49.358;11.256;2023-07-29T15:53:04;25.60;99.90
8643;DHT22;4359;49.358;11.256;2023-07-29T15:55:30;25.60;99.90
8643;DHT22;4359;49.358;11.256;2023-07-29T15:57:56;25.50;99.90
8643;DHT22;4359;49.358;11.256;2023-07-29T16:00:21;25.50;99.90
8643;DHT22;4359;49.358;11.256;2023-07-29T16:02:48;25.10;99.90